Time;durP1;ratioP1;P1;durP2;ratioP2;P2;SDS_P1;SDS_P2;PMS_P1;PMS_P2;Temp;Humidity;BMP_temperature;BMP_pressure;BME280_temperature;BME280_humidity;BME280_pressure;Samples;Min_cycle;Max_cycle;Signal;HPM_P1;HPM_P2
2023/05/02 00:04:26;;;;;;;12.30;7.22;;;;;;;;;;6175728;23;20055;-82
2023/05/02 00:07:19;;;;;;;12.63;7.97;;;;;;;;;;6155150;23;20306;-82
2023/05/02 00:09:50;;;;;;;11.05;8.52;;;;;;;;;;6153284;23;20024;-82
2023/05/02 00:12:39;;;;;;;11.63;8.32;;;;;;;;;;6155009;23;20021;-83
2023/05/02 00:15:15;;;;;;;14.32;8.73;;;;;;;;;;6154510;23;20092;-83
2023/05/02 00:18:01;;;;;;;11.45;8.30;;;;;;;;;;6154940;23;20009;-83
2023/05/02 00:20:30;;;;;;;12.45;9.13;;;;;;;;;;6180395;23;20008;-82
2023/05/02 00:23:11;;;;;;;11.88;9.02;;;;;;;;;;6181514;23;20012;-82
2023/05/02 00:25:46;;;;;;;14.40;9.45;;;;;;;;;;6180960;23;20011;-82
2023/05/02 00:28:14;;;;;;;14.25;9.88;;;;;;;;;;6154963;23;20017;-83
2023/05/02 00:30:47;;;;;;;12.77;9.60;;;;;;;;;;6154109;23;20017;-83
2023/05/02 00:33:13;;;;;;;;;;;;;;;;;;6155054;23;20040;-83
2023/05/02 00:35:42;;;;;;;18.83;13.73;;;;;;;;;;6153774;23;20215;-82
2023/05/02 00:38:11;;;;;;;21.83;15.82;;;;;;;;;;6154246;23;20013;-82
2023/05/02 00:40:58;;;;;;;16.20;11.88;;;;;;;;;;6180717;23;20329;-83
2023/05/02 00:43:44;;;;;;;14.18;11.10;;;;;;;;;;6154235;23;20016;-83
2023/05/02 00:46:15;;;;;;;16.58;12.05;;;;;;;;;;6154441;23;20027;-82
2023/05/02 00:48:46;;;;;;;12.85;10.10;;;;;;;;;;6154905;23;20043;-82
2023/05/02 00:51:16;;;;;;;14.10;10.90;;;;;;;;;;6153940;23;20067;-82
2023/05/02 00:53:42;;;;;;;12.38;9.27;;;;;;;;;;6181408;23;20029;-82
2023/05/02 00:56:16;;;;;;;13.50;10.60;;;;;;;;;;6153851;23;20056;-82
2023/05/02 00:58:53;;;;;;;13.57;9.13;;;;;;;;;;6154897;23;20029;-82
2023/05/02 01:01:34;;;;;;;14.38;9.23;;;;;;;;;;6181102;23;20088;-83
2023/05/02 01:04:31;;;;;;;7.85;6.45;;;;;;;;;;6154689;23;20104;-82
2023/05/02 01:10:37;;;;;;;9.05;4.70;;;;;;;;;;6170615;23;20379;-82
2023/05/02 01:13:09;;;;;;;12.02;6.03;;;;;;;;;;6154527;23;20013;-82
2023/05/02 01:15:40;;;;;;;;;;;;;;;;;;6182021;23;20009;-83
2023/05/02 01:18:17;;;;;;;14.20;8.93;;;;;;;;;;6181188;23;20569;-83
2023/05/02 01:21:17;;;;;;;11.90;9.40;;;;;;;;;;6152944;23;20035;-82
2023/05/02 01:27:13;;;;;;;14.23;10.45;;;;;;;;;;6180156;23;20041;-82
2023/05/02 01:29:43;;;;;;;17.20;9.82;;;;;;;;;;6153425;23;20072;-82
2023/05/02 01:35:05;;;;;;;10.25;8.90;;;;;;;;;;6165116;23;20076;-83
2023/05/02 01:37:53;;;;;;;12.35;9.02;;;;;;;;;;6153555;23;20013;-83
2023/05/02 01:40:25;;;;;;;12.18;7.07;;;;;;;;;;6181434;23;20013;-83
2023/05/02 01:45:45;;;;;;;10.23;6.05;;;;;;;;;;6059948;23;20823;-83
2023/05/02 01:48:24;;;;;;;8.15;6.10;;;;;;;;;;6139224;23;20043;-82
2023/05/02 01:51:04;;;;;;;12.85;7.45;;;;;;;;;;6155616;23;20345;-82
2023/05/02 01:53:52;;;;;;;12.63;6.32;;;;;;;;;;6155710;23;20020;-82
2023/05/02 01:56:21;;;;;;;9.43;6.10;;;;;;;;;;6156202;23;20048;-82
2023/05/02 01:58:52;;;;;;;10.18;7.70;;;;;;;;;;6155702;23;20012;-82
2023/05/02 02:01:27;;;;;;;9.73;6.47;;;;;;;;;;6156178;23;20016;-82
2023/05/02 02:03:59;;;;;;;9.00;6.88;;;;;;;;;;6154950;23;20020;-82
2023/05/02 02:06:38;;;;;;;8.48;7.07;;;;;;;;;;6155978;23;20028;-82
2023/05/02 02:09:34;;;;;;;14.48;8.88;;;;;;;;;;6154582;23;20017;-82
2023/05/02 02:12:25;;;;;;;11.38;5.07;;;;;;;;;;6130377;23;20036;-83
2023/05/02 02:15:04;;;;;;;7.80;4.65;;;;;;;;;;6154769;23;20471;-82
2023/05/02 02:20:56;;;;;;;6.68;4.43;;;;;;;;;;6181392;23;20067;-82
2023/05/02 02:23:27;;;;;;;5.03;3.30;;;;;;;;;;6181930;23;20005;-82
2023/05/02 02:25:59;;;;;;;7.43;3.20;;;;;;;;;;6156018;23;20017;-82
2023/05/02 02:28:41;;;;;;;9.30;3.30;;;;;;;;;;6154798;23;20020;-83
2023/05/02 02:31:07;;;;;;;5.90;3.63;;;;;;;;;;6153985;23;20025;-82
2023/05/02 02:33:41;;;;;;;7.47;4.32;;;;;;;;;;6154942;23;20009;-82
2023/05/02 02:36:32;;;;;;;11.88;4.03;;;;;;;;;;6155632;23;20024;-82
2023/05/02 02:39:12;;;;;;;5.82;3.80;;;;;;;;;;6154863;23;20032;-83
2023/05/02 02:41:58;;;;;;;5.93;3.85;;;;;;;;;;6182622;23;20009;-83
2023/05/02 02:44:58;;;;;;;6.93;3.63;;;;;;;;;;6159040;23;20032;-83
2023/05/02 02:47:49;;;;;;;7.22;3.83;;;;;;;;;;6179861;23;20113;-82
2023/05/02 02:50:18;;;;;;;5.25;3.53;;;;;;;;;;6179381;23;20021;-83
2023/05/02 02:52:44;;;;;;;5.35;3.67;;;;;;;;;;6179895;23;20059;-83
2023/05/02 02:55:28;;;;;;;7.88;3.72;;;;;;;;;;6179885;23;20013;-83
2023/05/02 02:58:20;;;;;;;6.68;3.75;;;;;;;;;;6180541;23;20037;-83
2023/05/02 03:00:50;;;;;;;4.75;2.90;;;;;;;;;;6135250;23;20105;-83
2023/05/02 03:03:23;;;;;;;8.63;4.88;;;;;;;;;;6179837;23;20055;-82
2023/05/02 03:05:52;;;;;;;10.35;3.30;;;;;;;;;;6179775;23;20012;-83
2023/05/02 03:08:24;;;;;;;6.50;3.80;;;;;;;;;;6178070;23;20029;-82
2023/05/02 03:10:53;;;;;;;10.23;4.75;;;;;;;;;;6179567;23;20115;-82
2023/05/02 03:13:21;;;;;;;9.30;5.03;;;;;;;;;;6179341;23;20051;-82
2023/05/02 03:16:06;;;;;;;7.97;3.70;;;;;;;;;;6179660;23;20510;-83
2023/05/02 03:18:35;;;;;;;6.50;3.60;;;;;;;;;;6179884;23;20060;-82
2023/05/02 03:21:03;;;;;;;4.97;3.10;;;;;;;;;;6181282;23;20009;-82
2023/05/02 03:23:30;;;;;;;6.28;3.38;;;;;;;;;;6181607;23;20017;-82
2023/05/02 03:25:58;;;;;;;5.82;3.70;;;;;;;;;;6179794;23;20040;-82
2023/05/02 03:28:27;;;;;;;8.02;5.07;;;;;;;;;;6179700;23;20020;-82
2023/05/02 03:30:53;;;;;;;5.55;3.40;;;;;;;;;;6181076;23;20045;-82
2023/05/02 03:33:25;;;;;;;7.10;4.45;;;;;;;;;;6181765;23;20384;-82
2023/05/02 03:35:56;;;;;;;7.53;3.58;;;;;;;;;;6178966;23;20009;-82
2023/05/02 03:38:23;;;;;;;6.85;4.07;;;;;;;;;;6179791;23;20539;-83
2023/05/02 03:40:49;;;;;;;8.27;3.22;;;;;;;;;;6181836;23;20077;-83
2023/05/02 03:43:15;;;;;;;4.95;3.42;;;;;;;;;;6180246;23;20588;-83
2023/05/02 03:45:41;;;;;;;10.15;4.32;;;;;;;;;;6179074;23;20108;-81
2023/05/02 03:48:07;;;;;;;5.60;4.15;;;;;;;;;;6181346;23;20039;-83
2023/05/02 03:50:33;;;;;;;7.90;4.43;;;;;;;;;;6179080;23;20025;-83
2023/05/02 03:52:59;;;;;;;5.75;4.30;;;;;;;;;;6181850;23;20013;-83
2023/05/02 03:55:27;;;;;;;8.05;5.00;;;;;;;;;;6178836;23;20078;-83
2023/05/02 03:57:53;;;;;;;6.85;4.22;;;;;;;;;;6179651;23;20100;-82
2023/05/02 04:00:19;;;;;;;8.60;3.80;;;;;;;;;;6179083;23;20028;-83
2023/05/02 04:02:45;;;;;;;13.95;4.40;;;;;;;;;;6181834;23;20001;-83
2023/05/02 04:05:11;;;;;;;8.60;4.68;;;;;;;;;;6178686;23;20059;-82
2023/05/02 04:07:37;;;;;;;12.13;5.00;;;;;;;;;;6179537;23;20005;-82
2023/05/02 04:10:03;;;;;;;15.52;5.82;;;;;;;;;;6181687;23;20016;-83
2023/05/02 04:12:30;;;;;;;6.65;4.32;;;;;;;;;;6180926;23;20005;-82
2023/05/02 04:14:56;;;;;;;10.05;6.15;;;;;;;;;;6179880;23;20021;-82
2023/05/02 04:17:22;;;;;;;11.75;6.13;;;;;;;;;;6178889;23;20020;-83
2023/05/02 04:19:48;;;;;;;9.10;6.13;;;;;;;;;;6180892;23;20012;-82
2023/05/02 04:22:14;;;;;;;10.10;6.15;;;;;;;;;;6180398;23;20428;-82
2023/05/02 04:24:40;;;;;;;15.15;5.32;;;;;;;;;;6179556;23;20040;-82
2023/05/02 04:27:06;;;;;;;8.55;5.07;;;;;;;;;;6181042;23;20009;-83
2023/05/02 04:29:32;;;;;;;7.05;4.75;;;;;;;;;;6180030;23;20017;-82
2023/05/02 04:31:58;;;;;;;7.43;5.32;;;;;;;;;;6179020;23;20339;-82
2023/05/02 04:34:25;;;;;;;10.13;4.95;;;;;;;;;;6181363;23;20427;-82
2023/05/02 04:36:51;;;;;;;9.27;4.70;;;;;;;;;;6180533;23;20001;-83
2023/05/02 04:39:17;;;;;;;9.75;4.93;;;;;;;;;;6181242;23;20013;-83
2023/05/02 04:41:43;;;;;;;13.10;8.13;;;;;;;;;;6179340;23;20084;-82
2023/05/02 04:44:09;;;;;;;11.88;5.22;;;;;;;;;;6179145;23;20021;-82
2023/05/02 04:46:35;;;;;;;11.15;5.70;;;;;;;;;;6154437;23;20015;-83
2023/05/02 04:49:01;;;;;;;10.15;5.45;;;;;;;;;;6154562;23;20787;-83
2023/05/02 04:51:28;;;;;;;10.13;6.30;;;;;;;;;;6181407;23;20080;-82
2023/05/02 04:53:54;;;;;;;10.35;5.90;;;;;;;;;;6181399;23;20005;-82
2023/05/02 04:56:20;;;;;;;9.70;6.00;;;;;;;;;;6154136;23;20511;-82
2023/05/02 04:58:46;;;;;;;12.68;6.10;;;;;;;;;;6181126;23;20002;-83
2023/05/02 05:01:12;;;;;;;13.23;7.15;;;;;;;;;;6181090;23;20029;-82
2023/05/02 05:03:38;;;;;;;13.63;9.77;;;;;;;;;;6154551;23;20009;-82
2023/05/02 05:06:04;;;;;;;50.17;14.52;;;;;;;;;;6180093;23;20116;-82
2023/05/02 05:08:31;;;;;;;50.88;16.67;;;;;;;;;;6154515;23;20788;-82
2023/05/02 05:10:57;;;;;;;19.45;13.68;;;;;;;;;;6153912;23;20147;-83
2023/05/02 05:13:23;;;;;;;17.65;11.85;;;;;;;;;;6154905;23;20059;-82
2023/05/02 05:15:50;;;;;;;15.70;11.30;;;;;;;;;;6154350;23;20009;-82
2023/05/02 05:18:16;;;;;;;20.00;11.75;;;;;;;;;;6154308;23;20040;-83
2023/05/02 05:20:42;;;;;;;17.25;11.20;;;;;;;;;;6180038;23;20009;-83
2023/05/02 05:23:08;;;;;;;17.38;11.70;;;;;;;;;;6182061;23;20009;-83
2023/05/02 05:25:34;;;;;;;29.92;20.65;;;;;;;;;;6155990;23;20021;-82
2023/05/02 05:28:00;;;;;;;17.45;12.40;;;;;;;;;;6183157;23;20037;-82
2023/05/02 05:30:26;;;;;;;22.27;13.43;;;;;;;;;;6156448;23;20041;-82
2023/05/02 05:32:52;;;;;;;20.65;11.70;;;;;;;;;;6182742;23;20009;-83
2023/05/02 05:35:19;;;;;;;18.08;13.00;;;;;;;;;;6156470;23;20013;-83
2023/05/02 05:37:45;;;;;;;19.10;12.10;;;;;;;;;;6155996;23;20001;-83
2023/05/02 05:40:11;;;;;;;24.35;13.52;;;;;;;;;;6183083;23;20087;-83
2023/05/02 05:42:37;;;;;;;19.38;12.02;;;;;;;;;;6156399;23;20370;-83
2023/05/02 05:45:03;;;;;;;22.25;12.75;;;;;;;;;;6165298;23;20067;-83
2023/05/02 05:47:29;;;;;;;17.60;9.95;;;;;;;;;;6180295;23;20020;-83
2023/05/02 05:49:55;;;;;;;15.15;9.38;;;;;;;;;;6181075;23;20013;-83
2023/05/02 05:52:21;;;;;;;14.82;10.85;;;;;;;;;;6182084;23;20013;-83
2023/05/02 05:54:48;;;;;;;16.30;10.23;;;;;;;;;;6182674;23;20474;-83
2023/05/02 05:57:14;;;;;;;13.15;8.40;;;;;;;;;;6181919;23;20402;-83
2023/05/02 05:59:40;;;;;;;16.10;9.85;;;;;;;;;;6181101;23;20310;-83
2023/05/02 06:02:06;;;;;;;12.45;8.20;;;;;;;;;;6182640;23;20772;-83
2023/05/02 06:04:32;;;;;;;13.23;6.28;;;;;;;;;;6183460;23;20532;-83
2023/05/02 06:06:58;;;;;;;11.60;7.00;;;;;;;;;;6182566;23;20084;-83
2023/05/02 06:09:24;;;;;;;10.73;5.85;;;;;;;;;;6182963;23;20576;-83
2023/05/02 06:11:50;;;;;;;11.30;6.32;;;;;;;;;;6182589;23;20013;-83
2023/05/02 06:14:17;;;;;;;13.38;6.32;;;;;;;;;;6182753;23;20016;-82
2023/05/02 06:16:43;;;;;;;14.20;5.25;;;;;;;;;;6182439;23;20337;-83
2023/05/02 06:19:09;;;;;;;12.40;3.83;;;;;;;;;;6182219;23;20432;-83
2023/05/02 06:21:38;;;;;;;8.15;3.70;;;;;;;;;;6180328;23;20437;-83
2023/05/02 06:24:04;;;;;;;6.40;3.10;;;;;;;;;;6181080;23;20017;-83
2023/05/02 06:26:30;;;;;;;5.55;2.75;;;;;;;;;;6182504;23;20009;-83
2023/05/02 06:28:56;;;;;;;8.15;3.40;;;;;;;;;;6182367;23;20008;-83
2023/05/02 06:31:22;;;;;;;11.93;3.25;;;;;;;;;;6181904;23;20009;-82
2023/05/02 06:33:48;;;;;;;6.93;3.00;;;;;;;;;;6181850;23;20013;-83
2023/05/02 06:36:14;;;;;;;8.25;3.80;;;;;;;;;;6181853;23;20005;-83
2023/05/02 06:38:40;;;;;;;9.07;3.75;;;;;;;;;;6182240;23;20063;-82
2023/05/02 06:41:12;;;;;;;6.15;3.33;;;;;;;;;;6179242;23;20433;-82
2023/05/02 06:43:38;;;;;;;6.43;3.28;;;;;;;;;;6182640;23;20100;-83
2023/05/02 06:46:04;;;;;;;5.63;3.40;;;;;;;;;;6182218;23;20036;-82
2023/05/02 06:48:30;;;;;;;8.45;2.85;;;;;;;;;;6181743;23;20009;-83
2023/05/02 06:50:56;;;;;;;6.22;2.90;;;;;;;;;;6182999;23;20086;-83
2023/05/02 06:53:22;;;;;;;6.32;3.40;;;;;;;;;;6155045;23;20013;-83
2023/05/02 06:55:49;;;;;;;7.80;2.90;;;;;;;;;;6156218;23;20337;-83
2023/05/02 06:58:15;;;;;;;4.53;2.65;;;;;;;;;;6155654;23;20008;-82
2023/05/02 07:00:41;;;;;;;6.45;4.20;;;;;;;;;;6155962;23;20019;-83
2023/05/02 07:03:09;;;;;;;7.93;3.20;;;;;;;;;;6181724;23;20011;-82
2023/05/02 07:05:35;;;;;;;6.15;3.38;;;;;;;;;;6156107;23;20040;-82
2023/05/02 07:08:01;;;;;;;7.03;3.28;;;;;;;;;;6155207;23;20009;-83
2023/05/02 07:10:28;;;;;;;8.85;4.10;;;;;;;;;;6182048;23;20021;-83
2023/05/02 07:12:54;;;;;;;5.78;4.05;;;;;;;;;;6181941;23;20009;-83
2023/05/02 07:15:20;;;;;;;8.43;4.72;;;;;;;;;;6181433;23;20009;-82
2023/05/02 07:17:46;;;;;;;9.18;4.88;;;;;;;;;;6182064;23;20008;-83
2023/05/02 07:20:13;;;;;;;9.63;5.05;;;;;;;;;;6181414;23;20063;-83
2023/05/02 07:22:39;;;;;;;10.27;5.32;;;;;;;;;;6181403;23;20044;-83
2023/05/02 07:25:05;;;;;;;8.73;5.18;;;;;;;;;;6155247;23;20100;-83
2023/05/02 07:27:31;;;;;;;12.90;5.50;;;;;;;;;;6155044;23;20055;-83
2023/05/02 07:29:57;;;;;;;9.90;5.03;;;;;;;;;;6155687;23;20452;-82
2023/05/02 07:32:25;;;;;;;8.50;4.60;;;;;;;;;;6154522;23;20013;-83
2023/05/02 07:34:53;;;;;;;10.98;4.88;;;;;;;;;;6155044;23;20128;-83
2023/05/02 07:37:20;;;;;;;9.85;5.18;;;;;;;;;;6181313;23;20096;-83
2023/05/02 07:39:46;;;;;;;9.75;4.80;;;;;;;;;;6155704;23;20044;-83
2023/05/02 07:42:12;;;;;;;10.88;5.40;;;;;;;;;;6154989;23;20001;-83
2023/05/02 07:44:38;;;;;;;7.40;4.68;;;;;;;;;;6181535;23;20115;-82
2023/05/02 07:47:04;;;;;;;9.88;5.03;;;;;;;;;;6154411;23;20009;-83
2023/05/02 07:49:30;;;;;;;7.28;4.78;;;;;;;;;;6181924;23;20059;-83
2023/05/02 07:51:56;;;;;;;5.72;3.95;;;;;;;;;;6154562;23;20063;-83
2023/05/02 07:54:25;;;;;;;7.68;4.20;;;;;;;;;;6181246;23;20429;-82
2023/05/02 07:56:51;;;;;;;7.10;4.20;;;;;;;;;;6181337;23;20009;-83
2023/05/02 07:59:17;;;;;;;9.52;4.53;;;;;;;;;;6181545;23;20020;-82
2023/05/02 08:01:43;;;;;;;8.57;4.40;;;;;;;;;;6153910;23;20467;-83
2023/05/02 08:04:10;;;;;;;9.35;4.82;;;;;;;;;;6181563;23;20015;-83
2023/05/02 08:06:36;;;;;;;8.52;5.32;;;;;;;;;;6180864;23;20096;-83
2023/05/02 08:09:02;;;;;;;7.60;4.65;;;;;;;;;;6154965;23;20013;-83
2023/05/02 08:11:28;;;;;;;8.20;4.72;;;;;;;;;;6154559;23;20732;-83
2023/05/02 08:13:55;;;;;;;6.00;4.20;;;;;;;;;;6181760;23;20605;-83
2023/05/02 08:16:21;;;;;;;6.70;4.82;;;;;;;;;;6154054;23;20126;-83
2023/05/02 08:18:47;;;;;;;7.10;4.00;;;;;;;;;;6181872;23;20035;-83
2023/05/02 08:21:13;;;;;;;6.45;3.47;;;;;;;;;;6180929;23;20424;-83
2023/05/02 08:23:40;;;;;;;7.95;4.40;;;;;;;;;;6155054;23;20432;-83
2023/05/02 08:26:06;;;;;;;9.00;3.40;;;;;;;;;;6180796;23;20048;-83
2023/05/02 08:28:32;;;;;;;9.02;4.18;;;;;;;;;;6155385;23;20084;-83
2023/05/02 08:30:58;;;;;;;6.60;3.70;;;;;;;;;;6154061;23;20032;-82
2023/05/02 08:33:25;;;;;;;6.45;3.95;;;;;;;;;;6154839;23;20096;-83
2023/05/02 08:35:52;;;;;;;7.80;3.55;;;;;;;;;;6180758;23;20009;-82
2023/05/02 08:38:18;;;;;;;8.43;4.28;;;;;;;;;;6154133;23;20183;-83
2023/05/02 08:40:44;;;;;;;6.55;3.47;;;;;;;;;;6180946;23;20037;-83
2023/05/02 08:43:13;;;;;;;8.10;4.13;;;;;;;;;;6155014;23;20428;-83
2023/05/02 08:45:40;;;;;;;6.80;3.22;;;;;;;;;;6170215;23;20029;-83
2023/05/02 08:48:09;;;;;;;9.07;3.67;;;;;;;;;;6179912;23;20013;-83
2023/05/02 08:50:40;;;;;;;5.90;3.10;;;;;;;;;;6180260;23;20035;-83
2023/05/02 08:53:06;;;;;;;6.73;3.17;;;;;;;;;;6179270;23;20063;-83
2023/05/02 08:55:34;;;;;;;7.95;3.50;;;;;;;;;;6179346;23;20024;-83
2023/05/02 08:58:00;;;;;;;8.10;3.58;;;;;;;;;;6179434;23;20016;-83
2023/05/02 09:00:27;;;;;;;7.35;3.65;;;;;;;;;;6179435;23;20013;-83
2023/05/02 09:02:59;;;;;;;5.95;2.97;;;;;;;;;;6181208;23;20425;-83
2023/05/02 09:05:25;;;;;;;6.68;3.55;;;;;;;;;;6180025;23;20036;-83
2023/05/02 09:07:51;;;;;;;6.63;2.78;;;;;;;;;;6181184;23;20005;-83
2023/05/02 09:10:17;;;;;;;8.35;3.72;;;;;;;;;;6179549;23;20333;-83
2023/05/02 09:12:44;;;;;;;7.53;2.97;;;;;;;;;;6181058;23;20005;-83
2023/05/02 09:15:11;;;;;;;5.68;3.50;;;;;;;;;;6179343;23;20653;-83
2023/05/02 09:17:41;;;;;;;6.78;3.28;;;;;;;;;;6178713;23;20005;-83
2023/05/02 09:20:07;;;;;;;5.75;3.60;;;;;;;;;;6179504;23;20019;-83
2023/05/02 09:22:33;;;;;;;7.18;2.95;;;;;;;;;;6178927;23;20012;-83
2023/05/02 09:25:00;;;;;;;4.10;2.63;;;;;;;;;;6181157;23;20078;-83
2023/05/02 09:27:27;;;;;;;5.45;2.72;;;;;;;;;;6179944;23;20084;-83
2023/05/02 09:30:13;;;;;;;6.18;2.70;;;;;;;;;;6181325;23;20021;-83
2023/05/02 09:32:45;;;;;;;5.22;2.40;;;;;;;;;;6178342;23;20385;-84
2023/05/02 09:35:12;;;;;;;4.20;1.88;;;;;;;;;;6179417;23;20404;-83
2023/05/02 09:37:38;;;;;;;6.80;2.38;;;;;;;;;;6178520;23;20011;-83
2023/05/02 09:40:05;;;;;;;5.55;1.90;;;;;;;;;;6179179;23;20084;-83
2023/05/02 09:42:31;;;;;;;3.05;1.42;;;;;;;;;;6180454;23;20008;-83
2023/05/02 09:44:57;;;;;;;4.70;1.50;;;;;;;;;;6179184;23;20032;-83
2023/05/02 09:47:27;;;;;;;2.42;1.30;;;;;;;;;;6178845;23;20729;-83
2023/05/02 09:49:53;;;;;;;5.30;1.25;;;;;;;;;;6181355;23;20013;-83
2023/05/02 09:52:20;;;;;;;2.67;1.20;;;;;;;;;;6180506;23;20009;-83
2023/05/02 09:54:49;;;;;;;3.75;1.20;;;;;;;;;;6180955;23;20017;-83
2023/05/02 09:57:15;;;;;;;1.88;0.90;;;;;;;;;;6179110;23;20012;-83
2023/05/02 09:59:41;;;;;;;4.50;1.25;;;;;;;;;;6180643;23;20009;-83
2023/05/02 10:02:10;;;;;;;2.97;1.23;;;;;;;;;;6179235;23;20005;-83
2023/05/02 10:04:36;;;;;;;1.95;1.08;;;;;;;;;;6178920;23;20017;-83
2023/05/02 10:07:03;;;;;;;3.85;1.20;;;;;;;;;;6179526;23;20013;-83
2023/05/02 10:09:33;;;;;;;3.40;1.30;;;;;;;;;;6181479;23;20392;-83
2023/05/02 10:12:05;;;;;;;3.70;1.40;;;;;;;;;;6180400;23;20390;-83
2023/05/02 10:14:35;;;;;;;6.13;1.30;;;;;;;;;;6182429;23;20013;-84
2023/05/02 10:17:04;;;;;;;3.83;1.20;;;;;;;;;;6181836;23;20025;-84
2023/05/02 10:19:37;;;;;;;4.78;1.20;;;;;;;;;;6180901;23;20013;-84
2023/05/02 10:22:03;;;;;;;2.03;0.93;;;;;;;;;;6182061;23;20008;-83
2023/05/02 10:24:32;;;;;;;3.45;1.10;;;;;;;;;;6180971;23;20560;-84
2023/05/02 10:26:58;;;;;;;3.13;1.20;;;;;;;;;;6182139;23;20020;-83
2023/05/02 10:29:28;;;;;;;3.63;1.40;;;;;;;;;;6180630;23;20024;-83
2023/05/02 10:31:55;;;;;;;2.72;1.13;;;;;;;;;;6180125;23;20013;-83
2023/05/02 10:34:21;;;;;;;5.43;1.55;;;;;;;;;;6180966;23;20120;-83
2023/05/02 10:36:48;;;;;;;4.00;1.35;;;;;;;;;;6180229;23;20005;-83
2023/05/02 10:39:14;;;;;;;4.03;1.30;;;;;;;;;;6180820;23;20103;-83
2023/05/02 10:41:41;;;;;;;5.43;1.63;;;;;;;;;;6180709;23;20048;-83
2023/05/02 10:44:07;;;;;;;3.45;1.08;;;;;;;;;;6180711;23;20091;-84
2023/05/02 10:46:34;;;;;;;4.43;1.13;;;;;;;;;;6181997;23;20083;-83
2023/05/02 10:49:08;;;;;;;2.30;1.05;;;;;;;;;;6155551;23;20044;-83
2023/05/02 10:51:35;;;;;;;4.05;1.23;;;;;;;;;;6155056;23;20503;-83
2023/05/02 10:54:19;;;;;;;2.35;1.10;;;;;;;;;;6155188;23;20340;-83
2023/05/02 10:57:05;;;;;;;4.38;0.95;;;;;;;;;;6181742;23;20005;-83
2023/05/02 10:59:32;;;;;;;2.83;0.80;;;;;;;;;;6155673;23;20100;-84
2023/05/02 11:01:59;;;;;;;2.25;1.10;;;;;;;;;;6154971;23;20024;-84
2023/05/02 11:04:26;;;;;;;2.38;0.90;;;;;;;;;;6182631;23;20015;-84
2023/05/02 11:06:58;;;;;;;3.05;1.10;;;;;;;;;;6154757;23;20012;-84
2023/05/02 11:09:24;;;;;;;3.55;1.00;;;;;;;;;;6182144;23;20009;-84
2023/05/02 11:11:51;;;;;;;2.08;0.93;;;;;;;;;;6155288;23;20017;-83
2023/05/02 11:14:41;;;;;;;2.50;0.80;;;;;;;;;;6155962;23;20108;-83
2023/05/02 11:17:08;;;;;;;2.30;0.90;;;;;;;;;;6166270;23;20027;-84
2023/05/02 11:19:37;;;;;;;4.53;1.10;;;;;;;;;;6155885;23;20076;-84
2023/05/02 11:22:19;;;;;;;2.83;1.25;;;;;;;;;;6181770;23;20009;-83
2023/05/02 11:24:46;;;;;;;;;;;;;;;;;;6156179;23;20013;-84
2023/05/02 11:27:32;;;;;;;2.42;0.93;;;;;;;;;;6155111;23;19908;-84
2023/05/02 11:30:08;;;;;;;3.83;1.00;;;;;;;;;;6155450;23;20425;-84
2023/05/02 11:32:44;;;;;;;6.85;1.10;;;;;;;;;;6154796;23;20021;-83
2023/05/02 11:35:23;;;;;;;3.63;1.17;;;;;;;;;;6155077;23;20021;-84
2023/05/02 11:37:56;;;;;;;2.15;0.90;;;;;;;;;;6181119;23;20005;-83
2023/05/02 11:40:23;;;;;;;3.08;0.90;;;;;;;;;;6155498;23;20092;-84
2023/05/02 11:42:49;;;;;;;3.22;0.93;;;;;;;;;;6154746;23;20013;-84
2023/05/02 11:45:19;;;;;;;3.58;0.88;;;;;;;;;;6166365;23;20039;-83
2023/05/02 11:47:47;;;;;;;2.53;0.80;;;;;;;;;;6179531;23;20527;-83
2023/05/02 11:50:13;;;;;;;5.15;0.98;;;;;;;;;;6180204;23;20448;-84
2023/05/02 11:52:40;;;;;;;2.72;0.95;;;;;;;;;;6179558;23;20021;-84
2023/05/02 11:55:08;;;;;;;1.98;0.77;;;;;;;;;;6179729;23;20027;-84
2023/05/02 11:57:34;;;;;;;2.78;1.00;;;;;;;;;;6179998;23;20654;-84
2023/05/02 12:00:00;;;;;;;2.53;0.73;;;;;;;;;;6182269;23;20109;-84
2023/05/02 12:02:36;;;;;;;2.25;0.90;;;;;;;;;;6179681;23;20452;-84
2023/05/02 12:05:05;;;;;;;2.42;1.05;;;;;;;;;;6182144;23;20013;-84
2023/05/02 12:07:38;;;;;;;4.80;0.90;;;;;;;;;;6179163;23;20176;-84
2023/05/02 12:10:05;;;;;;;5.15;1.35;;;;;;;;;;6181615;23;20009;-84
2023/05/02 12:12:31;;;;;;;6.25;1.00;;;;;;;;;;6179030;23;20092;-84
2023/05/02 12:14:58;;;;;;;2.42;1.10;;;;;;;;;;6179656;23;20389;-84
2023/05/02 12:17:24;;;;;;;4.97;1.10;;;;;;;;;;6179612;23;20005;-84
2023/05/02 12:19:50;;;;;;;4.47;1.10;;;;;;;;;;6179922;23;20020;-84
2023/05/02 12:22:17;;;;;;;4.30;0.98;;;;;;;;;;6179029;23;20445;-84
2023/05/02 12:24:43;;;;;;;4.70;1.02;;;;;;;;;;6181820;23;20024;-84
2023/05/02 12:27:13;;;;;;;2.42;0.98;;;;;;;;;;6180841;23;20076;-84
2023/05/02 12:29:43;;;;;;;2.42;0.85;;;;;;;;;;6181398;23;20091;-84
2023/05/02 12:32:09;;;;;;;2.95;0.88;;;;;;;;;;6178253;23;20136;-84
2023/05/02 12:34:36;;;;;;;2.90;1.10;;;;;;;;;;6179508;23;20433;-84
2023/05/02 12:37:02;;;;;;;4.88;1.10;;;;;;;;;;6179206;23;20120;-83
2023/05/02 12:39:36;;;;;;;4.10;0.93;;;;;;;;;;6179542;23;20049;-84
2023/05/02 12:42:29;;;;;;;6.03;1.10;;;;;;;;;;6181219;23;20001;-84
2023/05/02 12:44:55;;;;;;;6.40;1.17;;;;;;;;;;6174879;23;20033;-84
2023/05/02 12:47:21;;;;;;;1.80;0.82;;;;;;;;;;6180847;23;20005;-83
2023/05/02 12:49:51;;;;;;;3.30;0.98;;;;;;;;;;6181419;23;20017;-84
2023/05/02 12:52:21;;;;;;;3.53;0.65;;;;;;;;;;6179163;23;20087;-84
2023/05/02 12:54:47;;;;;;;5.10;0.98;;;;;;;;;;6179302;23;20013;-83
2023/05/02 12:57:23;;;;;;;2.80;0.80;;;;;;;;;;6178262;23;20055;-84
2023/05/02 12:59:51;;;;;;;2.17;0.85;;;;;;;;;;6180870;23;20051;-84
2023/05/02 13:02:17;;;;;;;3.75;0.70;;;;;;;;;;6179196;23;20643;-84
2023/05/02 13:04:43;;;;;;;2.42;0.85;;;;;;;;;;6180214;23;20108;-84
2023/05/02 13:07:10;;;;;;;2.47;1.08;;;;;;;;;;6178959;23;20020;-84
2023/05/02 13:09:36;;;;;;;2.53;0.90;;;;;;;;;;6179544;23;20100;-84
2023/05/02 13:12:03;;;;;;;3.83;1.10;;;;;;;;;;6178944;23;20013;-84
2023/05/02 13:14:29;;;;;;;2.08;0.70;;;;;;;;;;6178943;23;20024;-84
2023/05/02 13:16:55;;;;;;;3.15;0.77;;;;;;;;;;6179035;23;20012;-84
2023/05/02 13:19:21;;;;;;;2.03;0.80;;;;;;;;;;6179654;23;20017;-84
2023/05/02 13:21:48;;;;;;;3.72;0.95;;;;;;;;;;6179080;23;20055;-84
2023/05/02 13:24:16;;;;;;;1.63;0.80;;;;;;;;;;6179184;23;20475;-84
2023/05/02 13:26:42;;;;;;;1.85;0.90;;;;;;;;;;6178856;23;20013;-84
2023/05/02 13:29:10;;;;;;;1.42;0.73;;;;;;;;;;6181384;23;20020;-83
2023/05/02 13:31:39;;;;;;;1.98;0.63;;;;;;;;;;6179478;23;20044;-84
2023/05/02 13:34:05;;;;;;;2.10;0.80;;;;;;;;;;6179647;23;20728;-84
2023/05/02 13:36:31;;;;;;;3.97;0.93;;;;;;;;;;6179775;23;20009;-84
2023/05/02 13:38:57;;;;;;;2.25;0.93;;;;;;;;;;6178756;23;20328;-84
2023/05/02 13:41:24;;;;;;;2.40;0.93;;;;;;;;;;6179077;23;20064;-84
2023/05/02 13:43:50;;;;;;;2.83;0.90;;;;;;;;;;6179374;23;20016;-84
2023/05/02 13:46:16;;;;;;;4.55;1.00;;;;;;;;;;6180180;23;20025;-84
2023/05/02 13:48:42;;;;;;;3.47;0.90;;;;;;;;;;6181179;23;20013;-84
2023/05/02 13:51:08;;;;;;;3.55;0.90;;;;;;;;;;6182745;23;20004;-84
2023/05/02 13:53:34;;;;;;;3.80;0.70;;;;;;;;;;6182982;23;20005;-84
2023/05/02 13:56:01;;;;;;;3.83;0.80;;;;;;;;;;6180415;23;20092;-84
2023/05/02 13:58:27;;;;;;;2.28;0.80;;;;;;;;;;6181158;23;20013;-84
2023/05/02 14:00:53;;;;;;;2.15;0.73;;;;;;;;;;6181133;23;20019;-83
2023/05/02 14:03:19;;;;;;;3.42;0.90;;;;;;;;;;6180453;23;20009;-84
2023/05/02 14:05:45;;;;;;;1.25;0.63;;;;;;;;;;6181017;23;20017;-84
2023/05/02 14:08:16;;;;;;;7.80;0.88;;;;;;;;;;6180371;23;20028;-84
2023/05/02 14:10:42;;;;;;;3.25;0.90;;;;;;;;;;6180905;23;20055;-84
2023/05/02 14:13:09;;;;;;;2.65;0.80;;;;;;;;;;6180406;23;20012;-83
2023/05/02 14:15:36;;;;;;;2.70;0.73;;;;;;;;;;6183233;23;20646;-84
2023/05/02 14:18:02;;;;;;;2.85;0.70;;;;;;;;;;6181158;23;20013;-84
2023/05/02 14:20:28;;;;;;;4.25;1.02;;;;;;;;;;6181150;23;20028;-84
2023/05/02 14:22:54;;;;;;;5.05;1.00;;;;;;;;;;6180326;23;20005;-83
2023/05/02 14:25:20;;;;;;;4.30;0.90;;;;;;;;;;6180521;23;20064;-83
2023/05/02 14:27:46;;;;;;;4.10;0.88;;;;;;;;;;6179824;23;20458;-84
2023/05/02 14:30:13;;;;;;;2.83;0.73;;;;;;;;;;6181080;23;20021;-84
2023/05/02 14:32:39;;;;;;;2.40;0.60;;;;;;;;;;6180152;23;20013;-84
2023/05/02 14:35:05;;;;;;;3.08;1.02;;;;;;;;;;6180827;23;20021;-84
2023/05/02 14:37:31;;;;;;;9.13;0.80;;;;;;;;;;6180193;23;20016;-84
2023/05/02 14:39:57;;;;;;;3.47;0.80;;;;;;;;;;6180377;23;20432;-84
2023/05/02 14:42:23;;;;;;;1.85;0.70;;;;;;;;;;6180200;23;20009;-84
2023/05/02 14:44:50;;;;;;;3.03;0.70;;;;;;;;;;6180819;23;20061;-84
2023/05/02 14:47:16;;;;;;;2.65;1.02;;;;;;;;;;6180517;23;20047;-83
2023/05/02 14:49:42;;;;;;;2.55;0.90;;;;;;;;;;6180653;23;20044;-84
2023/05/02 14:52:09;;;;;;;2.55;0.80;;;;;;;;;;6180558;23;20017;-84
2023/05/02 14:54:37;;;;;;;2.90;0.93;;;;;;;;;;6180023;23;20336;-83
2023/05/02 14:57:03;;;;;;;2.08;0.80;;;;;;;;;;6179808;23;20096;-83
2023/05/02 14:59:30;;;;;;;2.78;0.68;;;;;;;;;;6180212;23;20013;-83
2023/05/02 15:01:56;;;;;;;4.03;1.10;;;;;;;;;;6180063;23;20033;-84
2023/05/02 15:04:24;;;;;;;2.95;0.70;;;;;;;;;;6180925;23;20017;-84
2023/05/02 15:06:52;;;;;;;4.45;0.90;;;;;;;;;;6180341;23;20017;-83
2023/05/02 15:09:18;;;;;;;2.58;0.70;;;;;;;;;;6180537;23;20539;-84